^^
Saratoga-Weather Station Historical Data
Daily Summary for January 31, 2021 Units:  Metric    English   Both
Daily Weekly Monthly Yearly Custom
  High: Low: Average:
Temperature: 21.9 °C 13.3 °C 17.2 °C
Dew Point: 14.5 °C 11.1 °C 12.8 °C
Humidity: 94% 54% 77%
Wind Speed: 11.1km/h 0km/h 2.2km/h
Wind Gust: 20.9km/h - -
Wind- - SSE
Pressure: 1024.4 hPa 1019.3 hPa -
Precipitation: 0.0 mm    
Historical Graphs
 
 
Tabular Data for January 31, 2021
Time Temperature Dew Point Pressure Wind Wind Speed Wind Gust Humidity Rainfall Rate (Hourly) solar
00:01 15.5 °C 13.5 °C 1019.3 hPa Calm   3.2 km/h 88% 0.0 mm 0 W/m2
00:06 15.4 °C 13.6 °C 1019.3 hPa Calm   1.6 km/h 89% 0.0 mm 0 W/m2
00:11 15.3 °C 13.5 °C 1019.3 hPa Calm     89% 0.0 mm 0 W/m2
00:16 15.3 °C 13.5 °C 1019.3 hPa Calm   1.6 km/h 89% 0.0 mm 0 W/m2
00:21 15.3 °C 13.5 °C 1019.6 hPa Calm     89% 0.0 mm 0 W/m2
00:26 15.2 °C 13.6 °C 1019.6 hPa Calm     90% 0.0 mm 0 W/m2
00:31 15.2 °C 13.6 °C 1019.6 hPa Calm     90% 0.0 mm 0 W/m2
00:36 15.1 °C 13.5 °C 1019.6 hPa Calm     90% 0.0 mm 0 W/m2
00:41 15.1 °C 13.6 °C 1019.6 hPa Calm     91% 0.0 mm 0 W/m2
00:46 15.1 °C 13.6 °C 1019.6 hPa Calm     91% 0.0 mm 0 W/m2
00:51 15.1 °C 13.6 °C 1019.6 hPa Calm     91% 0.0 mm 0 W/m2
00:56 15.1 °C 13.6 °C 1019.6 hPa Calm     91% 0.0 mm 0 W/m2
01:01 15 °C 13.5 °C 1019.6 hPa Calm     91% 0.0 mm 0 W/m2
01:06 14.9 °C 13.4 °C 1019.6 hPa Calm     91% 0.0 mm 0 W/m2
01:11 14.8 °C 13.3 °C 1019.6 hPa Calm     91% 0.0 mm 0 W/m2
01:16 14.8 °C 13.3 °C 1019.6 hPa West 1.4 km/h 1.6 km/h 91% 0.0 mm 0 W/m2
01:21 14.7 °C 13.2 °C 1019.6 hPa Calm   1.6 km/h 91% 0.0 mm 0 W/m2
01:26 14.6 °C 13.1 °C 1019.6 hPa Calm   1.6 km/h 91% 0.0 mm 0 W/m2
01:31 14.6 °C 13.3 °C 1019.6 hPa West 1.4 km/h 1.6 km/h 92% 0.0 mm 0 W/m2
01:36 14.5 °C 13.2 °C 1020.0 hPa Calm   1.6 km/h 92% 0.0 mm 0 W/m2
01:41 14.4 °C 13.1 °C 1020.0 hPa Calm     92% 0.0 mm 0 W/m2
01:46 14.3 °C 13 °C 1020.0 hPa Calm   1.6 km/h 92% 0.0 mm 0 W/m2
01:51 14.3 °C 13 °C 1020.0 hPa West 1.4 km/h 3.2 km/h 92% 0.0 mm 0 W/m2
01:56 14.3 °C 13 °C 1020.0 hPa West 1.4 km/h 3.2 km/h 92% 0.0 mm 0 W/m2
02:01 14.3 °C 13.2 °C 1020.0 hPa Calm   1.6 km/h 93% 0.0 mm 0 W/m2
02:07 14.3 °C 13.2 °C 1020.0 hPa Calm   3.2 km/h 93% 0.0 mm 0 W/m2
02:12 14.3 °C 13.2 °C 1020.0 hPa West 1.4 km/h 1.6 km/h 93% 0.0 mm 0 W/m2
02:17 14.3 °C 13.2 °C 1020.0 hPa Calm   3.2 km/h 93% 0.0 mm 0 W/m2
02:22 14.4 °C 13.3 °C 1020.0 hPa West 1.4 km/h 3.2 km/h 93% 0.0 mm 0 W/m2
02:27 14.4 °C 13.3 °C 1020.0 hPa Calm     93% 0.0 mm 0 W/m2
02:32 14.5 °C 13.2 °C 1019.6 hPa West 1.4 km/h 3.2 km/h 92% 0.0 mm 0 W/m2
02:37 14.6 °C 13.3 °C 1019.6 hPa Calm   1.6 km/h 92% 0.0 mm 0 W/m2
02:42 14.6 °C 13.3 °C 1019.6 hPa Calm   3.2 km/h 92% 0.0 mm 0 W/m2
02:47 14.7 °C 13.4 °C 1019.6 hPa West 1.4 km/h 4.8 km/h 92% 0.0 mm 0 W/m2
02:52 14.7 °C 13.4 °C 1019.6 hPa WSW 4.7 km/h 6.4 km/h 92% 0.0 mm 0 W/m2
02:57 14.8 °C 13.3 °C 1019.6 hPa Calm   3.2 km/h 91% 0.0 mm 0 W/m2
03:02 14.9 °C 13.4 °C 1019.6 hPa WSW 1.4 km/h 6.4 km/h 91% 0.0 mm 0 W/m2
03:07 14.9 °C 13.4 °C 1019.6 hPa Calm     91% 0.0 mm 0 W/m2
03:12 15 °C 13.5 °C 1019.6 hPa Calm   4.8 km/h 91% 0.0 mm 0 W/m2
03:17 14.9 °C 13.4 °C 1020.0 hPa Calm     91% 0.0 mm 0 W/m2
03:22 14.9 °C 13.4 °C 1020.0 hPa Calm     91% 0.0 mm 0 W/m2
03:27 14.8 °C 13.3 °C 1020.0 hPa Calm     91% 0.0 mm 0 W/m2
03:32 14.7 °C 13.2 °C 1020.0 hPa Calm   3.2 km/h 91% 0.0 mm 0 W/m2
03:37 14.6 °C 13.1 °C 1020.0 hPa Calm     91% 0.0 mm 0 W/m2
03:42 14.6 °C 13.1 °C 1020.0 hPa Calm   3.2 km/h 91% 0.0 mm 0 W/m2
03:47 14.5 °C 13.2 °C 1020.0 hPa Calm     92% 0.0 mm 0 W/m2
03:52 14.5 °C 13.2 °C 1020.0 hPa Calm     92% 0.0 mm 0 W/m2
03:57 14.5 °C 13.2 °C 1020.3 hPa Calm     92% 0.0 mm 0 W/m2
04:02 14.5 °C 13.2 °C 1020.3 hPa Calm   1.6 km/h 92% 0.0 mm 0 W/m2
04:07 14.5 °C 13.2 °C 1020.3 hPa Calm     92% 0.0 mm 0 W/m2
04:12 14.5 °C 13.2 °C 1020.3 hPa Calm     92% 0.0 mm 0 W/m2
04:17 14.6 °C 13.3 °C 1020.3 hPa Calm     92% 0.0 mm 0 W/m2
04:22 14.6 °C 13.3 °C 1020.3 hPa Calm     92% 0.0 mm 0 W/m2
04:27 14.6 °C 13.3 °C 1020.3 hPa Calm     92% 0.0 mm 0 W/m2
04:32 14.6 °C 13.1 °C 1020.3 hPa Calm     91% 0.0 mm 0 W/m2
04:37 14.4 °C 12.9 °C 1020.3 hPa Calm     91% 0.0 mm 0 W/m2
04:42 14.3 °C 12.9 °C 1020.3 hPa Calm     91% 0.0 mm 0 W/m2
04:47 14.2 °C 12.8 °C 1020.0 hPa Calm     91% 0.0 mm 0 W/m2
04:52 14.1 °C 12.8 °C 1020.3 hPa Calm     92% 0.0 mm 0 W/m2
04:57 13.9 °C 12.6 °C 1020.3 hPa Calm     92% 0.0 mm 0 W/m2
05:02 13.8 °C 12.5 °C 1020.3 hPa Calm     92% 0.0 mm 0 W/m2
05:07 13.7 °C 12.4 °C 1020.3 hPa Calm     92% 0.0 mm 0 W/m2
05:12 13.7 °C 12.6 °C 1020.7 hPa Calm   4.8 km/h 93% 0.0 mm 0 W/m2
05:17 13.7 °C 12.6 °C 1020.3 hPa Calm     93% 0.0 mm 0 W/m2
05:22 13.7 °C 12.6 °C 1020.3 hPa Calm   3.2 km/h 93% 0.0 mm 0 W/m2
05:27 13.7 °C 12.6 °C 1020.7 hPa ESE 1.4 km/h 1.6 km/h 93% 0.0 mm 0 W/m2
05:32 13.6 °C 12.5 °C 1020.3 hPa Calm   1.6 km/h 93% 0.0 mm 0 W/m2
05:37 13.6 °C 12.5 °C 1020.3 hPa Calm     93% 0.0 mm 0 W/m2
05:42 13.6 °C 12.5 °C 1020.3 hPa East 3.2 km/h 6.4 km/h 93% 0.0 mm 0 W/m2
05:47 13.6 °C 12.7 °C 1020.3 hPa East 1.4 km/h 1.6 km/h 94% 0.0 mm 0 W/m2
05:52 13.6 °C 12.7 °C 1020.7 hPa Calm     94% 0.0 mm 0 W/m2
05:57 13.6 °C 12.7 °C 1020.7 hPa East 1.4 km/h 3.2 km/h 94% 0.0 mm 0 W/m2
06:02 13.6 °C 12.7 °C 1020.7 hPa East 3.2 km/h 3.2 km/h 94% 0.0 mm 0 W/m2
06:12 13.5 °C 12.6 °C 1020.7 hPa Calm     94% 0.0 mm 0 W/m2
06:17 13.4 °C 12.5 °C 1020.7 hPa Calm     94% 0.0 mm 0 W/m2
06:22 13.4 °C 12.5 °C 1020.7 hPa Calm     94% 0.0 mm 0 W/m2
06:27 13.4 °C 12.5 °C 1020.7 hPa Calm     94% 0.0 mm 0 W/m2
06:32 13.3 °C 12.4 °C 1020.7 hPa Calm     94% 0.0 mm 0 W/m2
06:38 13.3 °C 12.4 °C 1020.7 hPa Calm     94% 0.0 mm 0 W/m2
06:43 13.3 °C 12.4 °C 1021.0 hPa Calm     94% 0.0 mm 0 W/m2
06:48 13.3 °C 12.4 °C 1021.0 hPa ENE 4.7 km/h 6.4 km/h 94% 0.0 mm 0 W/m2
06:58 13.6 °C 12.7 °C 1021.0 hPa Calm   1.6 km/h 94% 0.0 mm 5 W/m2
07:13 13.7 °C 12.8 °C 1021.0 hPa Calm     94% 0.0 mm 16 W/m2
07:23 13.7 °C 12.6 °C 1021.0 hPa Calm     93% 0.0 mm 21 W/m2
07:28 13.7 °C 12.8 °C 1021.3 hPa Calm   1.6 km/h 94% 0.0 mm 25 W/m2
07:33 13.7 °C 12.6 °C 1021.3 hPa East 3.2 km/h 9.7 km/h 93% 0.0 mm 26 W/m2
07:38 13.8 °C 12.9 °C 1021.3 hPa NW 1.4 km/h 4.8 km/h 94% 0.0 mm 28 W/m2
07:43 13.8 °C 12.7 °C 1021.3 hPa SE 1.4 km/h 9.7 km/h 93% 0.0 mm 33 W/m2
07:48 13.9 °C 12.8 °C 1021.3 hPa SE 4.7 km/h 4.8 km/h 93% 0.0 mm 37 W/m2
07:53 14 °C 12.9 °C 1021.3 hPa NNW 3.2 km/h 4.8 km/h 93% 0.0 mm 47 W/m2
07:58 14.1 °C 12.8 °C 1021.3 hPa ENE 1.4 km/h 3.2 km/h 92% 0.0 mm 40 W/m2
08:03 14.1 °C 12.8 °C 1021.3 hPa Calm   4.8 km/h 92% 0.0 mm 33 W/m2
08:08 14.2 °C 12.9 °C 1021.3 hPa Calm   1.6 km/h 92% 0.0 mm 49 W/m2
08:13 14.3 °C 13 °C 1021.7 hPa SE 3.2 km/h 3.2 km/h 92% 0.0 mm 63 W/m2
08:18 14.4 °C 12.9 °C 1021.7 hPa NE 1.4 km/h 3.2 km/h 91% 0.0 mm 72 W/m2
08:23 14.6 °C 13.1 °C 1021.7 hPa NE 3.2 km/h 6.4 km/h 91% 0.0 mm 67 W/m2
08:43 14.7 °C 13.1 °C 1021.7 hPa Calm   3.2 km/h 90% 0.0 mm 84 W/m2
08:48 14.7 °C 13.1 °C 1021.7 hPa WNW 4.7 km/h 4.8 km/h 90% 0.0 mm 79 W/m2
08:53 14.8 °C 13 °C 1021.7 hPa NE 1.4 km/h 6.4 km/h 89% 0.0 mm 74 W/m2
08:58 14.8 °C 13 °C 1021.7 hPa East 3.2 km/h 4.8 km/h 89% 0.0 mm 84 W/m2
09:03 14.9 °C 13.1 °C 1021.7 hPa Calm   1.6 km/h 89% 0.0 mm 100 W/m2
09:08 14.9 °C 13.1 °C 1021.7 hPa Calm   3.2 km/h 89% 0.0 mm 107 W/m2
09:13 15.1 °C 13.3 °C 1021.7 hPa WNW 1.4 km/h 3.2 km/h 89% 0.0 mm 111 W/m2
09:18 15.1 °C 13.1 °C 1022.0 hPa Calm   4.8 km/h 88% 0.0 mm 118 W/m2
09:23 15.2 °C 13.2 °C 1022.0 hPa WNW 3.2 km/h 4.8 km/h 88% 0.0 mm 114 W/m2
09:28 15.2 °C 13 °C 1022.0 hPa NE 4.7 km/h 11.3 km/h 87% 0.0 mm 128 W/m2
09:33 15.2 °C 13 °C 1022.0 hPa West 3.2 km/h 4.8 km/h 87% 0.0 mm 148 W/m2
09:38 15.3 °C 13.1 °C 1022.0 hPa WNW 3.2 km/h 4.8 km/h 87% 0.0 mm 155 W/m2
09:43 15.4 °C 13.2 °C 1022.0 hPa NNW 4.7 km/h 4.8 km/h 87% 0.0 mm 185 W/m2
09:48 15.5 °C 13.3 °C 1022.0 hPa Calm   4.8 km/h 87% 0.0 mm 281 W/m2
09:53 15.7 °C 13.5 °C 1022.0 hPa NW 1.4 km/h 4.8 km/h 87% 0.0 mm 230 W/m2
09:58 15.8 °C 13.5 °C 1022.0 hPa Calm   4.8 km/h 86% 0.0 mm 392 W/m2
10:03 16.2 °C 13.9 °C 1022.0 hPa NE 1.4 km/h 6.4 km/h 86% 0.0 mm 436 W/m2
10:08 16.7 °C 14.2 °C 1022.0 hPa ENE 1.4 km/h 6.4 km/h 85% 0.0 mm 448 W/m2
10:13 17.1 °C 14.2 °C 1022.0 hPa NNE 4.7 km/h 6.4 km/h 83% 0.0 mm 483 W/m2
10:18 17.4 °C 14.1 °C 1022.0 hPa ENE 4.7 km/h 12.9 km/h 81% 0.0 mm 492 W/m2
10:23 17.7 °C 14.2 °C 1022.0 hPa SE 6.4 km/h 14.5 km/h 80% 0.0 mm 587 W/m2
10:28 17.9 °C 14.2 °C 1022.0 hPa ESE 4.7 km/h 9.7 km/h 79% 0.0 mm 626 W/m2
10:33 18.2 °C 14.5 °C 1022.4 hPa East 3.2 km/h 12.9 km/h 79% 0.0 mm 636 W/m2
10:38 18.3 °C 14.2 °C 1022.4 hPa ENE 6.4 km/h 14.5 km/h 77% 0.0 mm 207 W/m2
10:43 18.1 °C 13.8 °C 1022.4 hPa East 4.7 km/h 16.1 km/h 76% 0.0 mm 269 W/m2
10:48 17.9 °C 13.8 °C 1022.4 hPa West 3.2 km/h 14.5 km/h 77% 0.0 mm 230 W/m2
10:53 17.8 °C 13.7 °C 1022.4 hPa ENE 4.7 km/h 6.4 km/h 77% 0.0 mm 257 W/m2
10:58 17.8 °C 13.7 °C 1022.4 hPa East 1.4 km/h 3.2 km/h 77% 0.0 mm 394 W/m2
11:08 18 °C 14.1 °C 1022.4 hPa North 6.4 km/h 6.4 km/h 78% 0.0 mm 271 W/m2
11:13 18 °C 13.7 °C 1022.4 hPa West 1.4 km/h 16.1 km/h 76% 0.0 mm 188 W/m2
11:18 18.1 °C 14 °C 1022.4 hPa North 4.7 km/h 9.7 km/h 77% 0.0 mm 188 W/m2
11:23 18.1 °C 13.6 °C 1022.4 hPa East 1.4 km/h 14.5 km/h 75% 0.0 mm 192 W/m2
11:28 18.1 °C 13.6 °C 1022.4 hPa West 4.7 km/h 8 km/h 75% 0.0 mm 255 W/m2
11:33 18.2 °C 13.5 °C 1022.4 hPa NNW 4.7 km/h 6.4 km/h 74% 0.0 mm 223 W/m2
11:38 18.3 °C 13.4 °C 1022.4 hPa ENE 1.4 km/h 4.8 km/h 73% 0.0 mm 197 W/m2
11:43 18.4 °C 13.5 °C 1022.7 hPa West 4.7 km/h 6.4 km/h 73% 0.0 mm 267 W/m2
11:48 18.6 °C 13.5 °C 1022.4 hPa ENE 7.9 km/h 11.3 km/h 72% 0.0 mm 195 W/m2
11:53 18.9 °C 14 °C 1022.7 hPa NNW 6.4 km/h 6.4 km/h 73% 0.0 mm 195 W/m2
11:58 19.3 °C 14.1 °C 1022.7 hPa Calm   11.3 km/h 72% 0.0 mm 571 W/m2
12:03 19.5 °C 13.7 °C 1022.7 hPa SSE 1.4 km/h 9.7 km/h 69% 0.0 mm 387 W/m2
12:08 19.4 °C 13.6 °C 1022.7 hPa NW 1.4 km/h 8 km/h 69% 0.0 mm 345 W/m2
12:13 19.5 °C 13.4 °C 1022.7 hPa NE 3.2 km/h 12.9 km/h 68% 0.0 mm 330 W/m2
12:18 19.6 °C 13.5 °C 1022.7 hPa East 6.4 km/h 12.9 km/h 68% 0.0 mm 346 W/m2
12:23 19.6 °C 13.5 °C 1022.7 hPa WNW 6.4 km/h 6.4 km/h 68% 0.0 mm 373 W/m2
12:28 19.7 °C 13.6 °C 1022.7 hPa NE 4.7 km/h 16.1 km/h 68% 0.0 mm 380 W/m2
12:33 19.8 °C 13.3 °C 1023.0 hPa ESE 6.4 km/h 16.1 km/h 66% 0.0 mm 381 W/m2
12:39 19.8 °C 13 °C 1023.0 hPa East 3.2 km/h 11.3 km/h 65% 0.0 mm 383 W/m2
12:44 19.8 °C 13.3 °C 1023.0 hPa East 3.2 km/h 11.3 km/h 66% 0.0 mm 429 W/m2
12:49 20 °C 13 °C 1023.0 hPa SSE 1.4 km/h 12.9 km/h 64% 0.0 mm 445 W/m2
12:54 20.1 °C 13.3 °C 1022.7 hPa NE 6.4 km/h 11.3 km/h 65% 0.0 mm 352 W/m2
12:59 20.1 °C 13.1 °C 1022.7 hPa NW 7.9 km/h 8 km/h 64% 0.0 mm 559 W/m2
13:04 20.2 °C 13.2 °C 1022.7 hPa SE 1.4 km/h 9.7 km/h 64% 0.0 mm 418 W/m2
13:09 20.2 °C 13.4 °C 1022.7 hPa ESE 3.2 km/h 14.5 km/h 65% 0.0 mm 239 W/m2
13:14 20.1 °C 13.3 °C 1022.7 hPa East 11.1 km/h 12.9 km/h 65% 0.0 mm 264 W/m2
13:19 20 °C 13.5 °C 1022.7 hPa East 4.7 km/h 14.5 km/h 66% 0.0 mm 334 W/m2
13:24 20.2 °C 14.1 °C 1022.7 hPa NNE 3.2 km/h 12.9 km/h 68% 0.0 mm 598 W/m2
13:29 20.4 °C 13.6 °C 1022.7 hPa ENE 9.7 km/h 17.7 km/h 65% 0.0 mm 494 W/m2
13:34 20.5 °C 13.2 °C 1022.7 hPa ENE 7.9 km/h 14.5 km/h 63% 0.0 mm 352 W/m2
13:44 20.6 °C 13.6 °C 1022.7 hPa ESE 7.9 km/h 11.3 km/h 64% 0.0 mm 476 W/m2
13:49 20.8 °C 13.3 °C 1022.7 hPa East 1.4 km/h 9.7 km/h 62% 0.0 mm 497 W/m2
13:54 20.9 °C 13.1 °C 1022.7 hPa NE 9.7 km/h 14.5 km/h 61% 0.0 mm 526 W/m2
13:59 21.1 °C 12.8 °C 1022.7 hPa ENE 1.4 km/h 20.9 km/h 59% 0.0 mm 875 W/m2
14:04 21.2 °C 12.9 °C 1022.7 hPa SE 4.7 km/h 11.3 km/h 59% 0.0 mm 867 W/m2
14:09 21.2 °C 12.6 °C 1022.7 hPa NE 3.2 km/h 20.9 km/h 58% 0.0 mm 812 W/m2
14:14 21.1 °C 12.5 °C 1022.7 hPa NE 4.7 km/h 14.5 km/h 58% 0.0 mm 835 W/m2
14:19 21.3 °C 13 °C 1022.7 hPa NW 4.7 km/h 19.3 km/h 59% 0.0 mm 882 W/m2
14:24 21.4 °C 13.1 °C 1022.7 hPa NW 4.7 km/h 11.3 km/h 59% 0.0 mm 967 W/m2
14:29 21.6 °C 13 °C 1022.7 hPa ENE 1.4 km/h 6.4 km/h 58% 0.0 mm 575 W/m2
14:34 21.6 °C 13.2 °C 1022.7 hPa ENE 4.7 km/h 12.9 km/h 59% 0.0 mm 309 W/m2
14:39 21.4 °C 13.1 °C 1022.7 hPa NE 1.4 km/h 8 km/h 59% 0.0 mm 258 W/m2
14:44 21.2 °C 13.1 °C 1022.7 hPa NE 4.7 km/h 9.7 km/h 60% 0.0 mm 283 W/m2
14:49 20.9 °C 13.1 °C 1022.7 hPa ENE 4.7 km/h 11.3 km/h 61% 0.0 mm 158 W/m2
14:54 20.7 °C 13.4 °C 1022.7 hPa North 1.4 km/h 4.8 km/h 63% 0.0 mm 135 W/m2
14:59 20.7 °C 13.4 °C 1022.7 hPa NW 3.2 km/h 6.4 km/h 63% 0.0 mm 156 W/m2
15:09 20.4 °C 13.6 °C 1022.7 hPa North 1.4 km/h 4.8 km/h 65% 0.0 mm 202 W/m2
15:14 20.6 °C 13.1 °C 1022.7 hPa ENE 3.2 km/h 16.1 km/h 62% 0.0 mm 738 W/m2
15:19 20.9 °C 12.6 °C 1022.7 hPa NE 4.7 km/h 9.7 km/h 59% 0.0 mm 868 W/m2
15:24 21.4 °C 13.1 °C 1022.7 hPa ENE 4.7 km/h 9.7 km/h 59% 0.0 mm 686 W/m2
15:29 21.6 °C 12.4 °C 1022.7 hPa ENE 3.2 km/h 12.9 km/h 56% 0.0 mm 390 W/m2
15:34 21.6 °C 12.7 °C 1022.7 hPa ENE 3.2 km/h 8 km/h 57% 0.0 mm 445 W/m2
15:39 21.5 °C 12.9 °C 1022.7 hPa ENE 3.2 km/h 4.8 km/h 58% 0.0 mm 285 W/m2
15:44 21.4 °C 12.5 °C 1022.7 hPa East 11.1 km/h 14.5 km/h 57% 0.0 mm 216 W/m2
15:49 21.1 °C 12.5 °C 1022.7 hPa NNW 4.7 km/h 9.7 km/h 58% 0.0 mm 142 W/m2
15:54 20.8 °C 12.7 °C 1022.7 hPa SE 1.4 km/h 4.8 km/h 60% 0.0 mm 113 W/m2
15:59 20.8 °C 13 °C 1022.7 hPa North 9.7 km/h 14.5 km/h 61% 0.0 mm 127 W/m2
16:04 20.7 °C 12.9 °C 1022.7 hPa SSW 3.2 km/h 6.4 km/h 61% 0.0 mm 174 W/m2
16:09 20.7 °C 12.9 °C 1022.7 hPa South 3.2 km/h 14.5 km/h 61% 0.0 mm 257 W/m2
16:14 20.8 °C 13 °C 1022.7 hPa WNW 6.4 km/h 6.4 km/h 61% 0.0 mm 327 W/m2
16:19 21 °C 12.7 °C 1022.7 hPa NNE 3.2 km/h 11.3 km/h 59% 0.0 mm 425 W/m2
16:24 21.2 °C 13.1 °C 1022.7 hPa Calm   6.4 km/h 60% 0.0 mm 318 W/m2
16:29 21.3 °C 12.4 °C 1022.7 hPa NNE 1.4 km/h 4.8 km/h 57% 0.0 mm 455 W/m2
16:34 21.5 °C 12.1 °C 1022.7 hPa SSE 6.4 km/h 6.4 km/h 55% 0.0 mm 524 W/m2
16:39 21.6 °C 12.2 °C 1022.7 hPa ESE 3.2 km/h 11.3 km/h 55% 0.0 mm 529 W/m2
16:44 21.4 °C 11.7 °C 1022.7 hPa East 4.7 km/h 8 km/h 54% 0.0 mm 302 W/m2
16:49 21.3 °C 12.4 °C 1022.7 hPa NE 3.2 km/h 9.7 km/h 57% 0.0 mm 230 W/m2
16:54 21.2 °C 12.3 °C 1022.7 hPa SSE 3.2 km/h 6.4 km/h 57% 0.0 mm 167 W/m2
16:59 21.1 °C 12.2 °C 1022.7 hPa NNE 6.4 km/h 16.1 km/h 57% 0.0 mm 174 W/m2
17:04 21 °C 12.2 °C 1023.0 hPa NNE 7.9 km/h 11.3 km/h 57% 0.0 mm 262 W/m2
17:09 21.1 °C 12.5 °C 1023.0 hPa NE 4.7 km/h 16.1 km/h 58% 0.0 mm 654 W/m2
17:14 21.3 °C 12.7 °C 1023.0 hPa NE 3.2 km/h 8 km/h 58% 0.0 mm 230 W/m2
17:19 21.4 °C 13.1 °C 1023.0 hPa ESE 4.7 km/h 12.9 km/h 59% 0.0 mm 527 W/m2
17:24 21.2 °C 13.1 °C 1023.0 hPa ENE 7.9 km/h 20.9 km/h 60% 0.0 mm 144 W/m2
17:29 20.9 °C 13.1 °C 1023.0 hPa NE 1.4 km/h 9.7 km/h 61% 0.0 mm 116 W/m2
17:34 20.8 °C 13.5 °C 1023.0 hPa North 4.7 km/h 20.9 km/h 63% 0.0 mm 227 W/m2
17:39 20.9 °C 13.6 °C 1023.0 hPa NNW 3.2 km/h 6.4 km/h 63% 0.0 mm 404 W/m2
17:44 21 °C 13.2 °C 1023.0 hPa West 3.2 km/h 6.4 km/h 61% 0.0 mm 425 W/m2
17:49 21.2 °C 13.4 °C 1023.0 hPa SW 4.7 km/h 6.4 km/h 61% 0.0 mm 417 W/m2
17:54 21.3 °C 12.7 °C 1022.7 hPa ENE 1.4 km/h 6.4 km/h 58% 0.0 mm 371 W/m2
17:59 21.5 °C 12.9 °C 1023.0 hPa Calm   9.7 km/h 58% 0.0 mm 338 W/m2
18:04 21.7 °C 13.1 °C 1022.7 hPa WNW 4.7 km/h 12.9 km/h 58% 0.0 mm 332 W/m2
18:09 21.7 °C 12.8 °C 1022.7 hPa West 4.7 km/h 9.7 km/h 57% 0.0 mm 336 W/m2
18:14 21.7 °C 13.1 °C 1022.7 hPa North 1.4 km/h 9.7 km/h 58% 0.0 mm 287 W/m2
18:19 21.7 °C 13.1 °C 1022.7 hPa NW 1.4 km/h 4.8 km/h 58% 0.0 mm 334 W/m2
18:24 21.8 °C 13.7 °C 1022.7 hPa Calm   4.8 km/h 60% 0.0 mm 332 W/m2
18:29 21.9 °C 13.3 °C 1022.7 hPa ENE 3.2 km/h 4.8 km/h 58% 0.0 mm 320 W/m2
18:34 21.9 °C 13.5 °C 1022.7 hPa NE 3.2 km/h 6.4 km/h 59% 0.0 mm 250 W/m2
18:39 21.8 °C 13.2 °C 1022.7 hPa East 3.2 km/h 6.4 km/h 58% 0.0 mm 202 W/m2
18:44 21.6 °C 12.4 °C 1022.7 hPa NNW 1.4 km/h 3.2 km/h 56% 0.0 mm 72 W/m2
18:49 21.2 °C 11.8 °C 1022.7 hPa NNW 3.2 km/h 6.4 km/h 55% 0.0 mm 179 W/m2
18:54 21.1 °C 11.7 °C 1022.7 hPa NNW 1.4 km/h 3.2 km/h 55% 0.0 mm 165 W/m2
18:59 21.1 °C 11.7 °C 1022.7 hPa Calm   4.8 km/h 55% 0.0 mm 134 W/m2
19:04 21.1 °C 11.7 °C 1022.7 hPa NE 1.4 km/h 4.8 km/h 55% 0.0 mm 155 W/m2
19:09 21.1 °C 12.2 °C 1022.7 hPa Calm   1.6 km/h 57% 0.0 mm 158 W/m2
19:14 21.1 °C 12.2 °C 1022.7 hPa SE 3.2 km/h 4.8 km/h 57% 0.0 mm 186 W/m2
19:19 21 °C 11.9 °C 1022.7 hPa ENE 4.7 km/h 9.7 km/h 56% 0.0 mm 171 W/m2
19:24 20.9 °C 12.1 °C 1022.7 hPa Calm   6.4 km/h 57% 0.0 mm 134 W/m2
19:29 20.9 °C 12.3 °C 1023.0 hPa NNE 11.1 km/h 11.3 km/h 58% 0.0 mm 109 W/m2
19:34 20.7 °C 12.1 °C 1023.0 hPa SW 1.4 km/h 6.4 km/h 58% 0.0 mm 90 W/m2
19:39 20.4 °C 12.1 °C 1023.0 hPa NW 3.2 km/h 11.3 km/h 59% 0.0 mm 69 W/m2
19:44 20.1 °C 12.1 °C 1023.0 hPa NE 4.7 km/h 8 km/h 60% 0.0 mm 37 W/m2
19:49 19.9 °C 11.9 °C 1023.0 hPa NE 1.4 km/h 4.8 km/h 60% 0.0 mm 25 W/m2
19:54 19.6 °C 11.9 °C 1023.0 hPa SW 1.4 km/h 6.4 km/h 61% 0.0 mm 21 W/m2
19:59 19.3 °C 11.6 °C 1023.0 hPa NE 4.7 km/h 9.7 km/h 61% 0.0 mm 18 W/m2
20:04 19.1 °C 11.6 °C 1023.0 hPa North 1.4 km/h 8 km/h 62% 0.0 mm 14 W/m2
20:09 18.9 °C 11.7 °C 1023.4 hPa Calm   3.2 km/h 63% 0.0 mm 11 W/m2
20:14 18.7 °C 11.8 °C 1023.4 hPa NE 4.7 km/h 8 km/h 64% 0.0 mm 9 W/m2
20:19 18.6 °C 11.9 °C 1023.4 hPa Calm   3.2 km/h 65% 0.0 mm 5 W/m2
20:24 18.4 °C 11.9 °C 1023.4 hPa Calm   8 km/h 66% 0.0 mm 0 W/m2
20:29 18.2 °C 11.7 °C 1023.4 hPa Calm   4.8 km/h 66% 0.0 mm 0 W/m2
20:34 18 °C 11.8 °C 1023.4 hPa Calm   1.6 km/h 67% 0.0 mm 0 W/m2
20:39 17.8 °C 11.6 °C 1023.4 hPa NNW 1.4 km/h 1.6 km/h 67% 0.0 mm 0 W/m2
20:44 17.8 °C 11.6 °C 1023.4 hPa Calm   3.2 km/h 67% 0.0 mm 0 W/m2
20:49 17.7 °C 11.7 °C 1023.4 hPa Calm   6.4 km/h 68% 0.0 mm 0 W/m2
20:54 17.6 °C 11.6 °C 1023.4 hPa SSE 1.4 km/h 3.2 km/h 68% 0.0 mm 0 W/m2
21:00 17.6 °C 11.6 °C 1023.4 hPa NNE 1.4 km/h 1.6 km/h 68% 0.0 mm 0 W/m2
21:05 17.4 °C 11.7 °C 1023.7 hPa Calm   3.2 km/h 69% 0.0 mm 0 W/m2
21:10 17.2 °C 11.5 °C 1023.7 hPa WNW 3.2 km/h 4.8 km/h 69% 0.0 mm 0 W/m2
21:15 17.2 °C 11.7 °C 1023.7 hPa WNW 3.2 km/h 3.2 km/h 70% 0.0 mm 0 W/m2
21:20 17.1 °C 11.8 °C 1023.7 hPa Calm   1.6 km/h 71% 0.0 mm 0 W/m2
21:25 16.8 °C 11.7 °C 1023.7 hPa Calm   1.6 km/h 72% 0.0 mm 0 W/m2
21:30 16.6 °C 11.7 °C 1024.0 hPa Calm   3.2 km/h 73% 0.0 mm 0 W/m2
21:35 16.3 °C 11.7 °C 1024.0 hPa WNW 1.4 km/h 1.6 km/h 74% 0.0 mm 0 W/m2
21:40 16.1 °C 11.5 °C 1024.0 hPa Calm   3.2 km/h 74% 0.0 mm 0 W/m2
21:45 15.9 °C 11.5 °C 1024.0 hPa Calm   1.6 km/h 75% 0.0 mm 0 W/m2
21:50 15.7 °C 11.3 °C 1024.0 hPa Calm   3.2 km/h 75% 0.0 mm 0 W/m2
21:55 15.6 °C 11.4 °C 1024.0 hPa WNW 1.4 km/h 1.6 km/h 76% 0.0 mm 0 W/m2
22:00 15.5 °C 11.1 °C 1024.0 hPa NNE 1.4 km/h 4.8 km/h 75% 0.0 mm 0 W/m2
22:05 15.5 °C 11.1 °C 1024.0 hPa Calm   1.6 km/h 75% 0.0 mm 0 W/m2
22:10 15.5 °C 11.1 °C 1024.0 hPa East 3.2 km/h 3.2 km/h 75% 0.0 mm 0 W/m2
22:15 15.4 °C 11.2 °C 1024.0 hPa ESE 1.4 km/h 3.2 km/h 76% 0.0 mm 0 W/m2
22:20 15.4 °C 11.4 °C 1024.0 hPa East 1.4 km/h 1.6 km/h 77% 0.0 mm 0 W/m2
22:25 15.3 °C 11.3 °C 1024.0 hPa East 1.4 km/h 1.6 km/h 77% 0.0 mm 0 W/m2
22:30 15.2 °C 11.2 °C 1024.0 hPa East 1.4 km/h 1.6 km/h 77% 0.0 mm 0 W/m2
22:35 15.2 °C 11.2 °C 1024.0 hPa SE 4.8 km/h 4.8 km/h 77% 0.0 mm 0 W/m2
22:40 15.3 °C 11.3 °C 1024.0 hPa Calm     77% 0.0 mm 0 W/m2
22:45 15.3 °C 11.3 °C 1024.0 hPa SE 4.8 km/h 4.8 km/h 77% 0.0 mm 0 W/m2
22:50 15.3 °C 11.3 °C 1024.0 hPa Calm   1.6 km/h 77% 0.0 mm 0 W/m2
22:55 15.2 °C 11.2 °C 1024.0 hPa Calm   1.6 km/h 77% 0.0 mm 0 W/m2
23:00 15.2 °C 11.2 °C 1024.4 hPa ESE 1.4 km/h 3.2 km/h 77% 0.0 mm 0 W/m2
23:05 15.1 °C 11.3 °C 1024.0 hPa Calm   3.2 km/h 78% 0.0 mm 0 W/m2
23:10 15 °C 11.4 °C 1024.0 hPa ESE 1.4 km/h 3.2 km/h 79% 0.0 mm 0 W/m2
23:15 14.8 °C 11.2 °C 1024.0 hPa SSE 6.4 km/h 6.4 km/h 79% 0.0 mm 0 W/m2
23:20 14.8 °C 11.2 °C 1024.0 hPa SSE 1.4 km/h 1.6 km/h 79% 0.0 mm 0 W/m2
23:25 14.8 °C 11.4 °C 1024.0 hPa SE 3.2 km/h 3.2 km/h 80% 0.0 mm 0 W/m2
23:30 14.8 °C 11.4 °C 1024.4 hPa Calm     80% 0.0 mm 0 W/m2
23:35 14.8 °C 11.4 °C 1024.4 hPa Calm     80% 0.0 mm 0 W/m2
23:40 14.7 °C 11.3 °C 1024.4 hPa Calm   3.2 km/h 80% 0.0 mm 0 W/m2
23:45 14.7 °C 11.5 °C 1024.4 hPa Calm     81% 0.0 mm 0 W/m2
23:50 14.6 °C 11.4 °C 1024.4 hPa Calm   1.6 km/h 81% 0.0 mm 0 W/m2
23:55 14.4 °C 11.2 °C 1024.4 hPa NNE 1.4 km/h 3.2 km/h 81% 0.0 mm 0 W/m2
Juneau County Weather
Compliments of Weather Underground - 4 mb